sensor_id;sensor_type;location;lat;lon;timestamp;P1;durP1;ratioP1;P2;durP2;ratioP2
20910;SDS011;10615;42.702;23.314;2023-11-19T00:00:34;2.75;;;2.30;;
20910;SDS011;10615;42.702;23.314;2023-11-19T00:01:35;2.45;;;2.00;;
20910;SDS011;10615;42.702;23.314;2023-11-19T00:02:37;2.45;;;2.25;;
20910;SDS011;10615;42.702;23.314;2023-11-19T00:03:38;2.08;;;1.88;;
20910;SDS011;10615;42.702;23.314;2023-11-19T00:04:39;2.83;;;2.28;;
20910;SDS011;10615;42.702;23.314;2023-11-19T00:05:40;2.67;;;2.25;;
20910;SDS011;10615;42.702;23.314;2023-11-19T00:06:41;3.30;;;2.17;;
20910;SDS011;10615;42.702;23.314;2023-11-19T00:07:42;2.83;;;2.40;;
20910;SDS011;10615;42.702;23.314;2023-11-19T00:08:43;3.35;;;2.60;;
20910;SDS011;10615;42.702;23.314;2023-11-19T00:09:44;1.98;;;1.77;;
20910;SDS011;10615;42.702;23.314;2023-11-19T00:10:44;2.58;;;2.20;;
20910;SDS011;10615;42.702;23.314;2023-11-19T00:11:46;2.30;;;2.10;;
20910;SDS011;10615;42.702;23.314;2023-11-19T00:12:47;3.33;;;2.15;;
20910;SDS011;10615;42.702;23.314;2023-11-19T00:13:48;2.63;;;2.42;;
20910;SDS011;10615;42.702;23.314;2023-11-19T00:14:49;2.35;;;2.15;;
20910;SDS011;10615;42.702;23.314;2023-11-19T00:15:50;2.33;;;2.05;;
20910;SDS011;10615;42.702;23.314;2023-11-19T00:16:51;2.55;;;2.10;;
20910;SDS011;10615;42.702;23.314;2023-11-19T00:17:52;2.40;;;2.20;;
20910;SDS011;10615;42.702;23.314;2023-11-19T00:18:52;2.28;;;2.03;;
20910;SDS011;10615;42.702;23.314;2023-11-19T00:19:53;2.35;;;2.15;;
20910;SDS011;10615;42.702;23.314;2023-11-19T00:20:54;2.65;;;2.28;;
20910;SDS011;10615;42.702;23.314;2023-11-19T00:21:54;4.15;;;2.55;;
20910;SDS011;10615;42.702;23.314;2023-11-19T00:22:55;2.15;;;1.95;;
20910;SDS011;10615;42.702;23.314;2023-11-19T00:23:56;3.45;;;2.13;;
20910;SDS011;10615;42.702;23.314;2023-11-19T00:24:58;3.83;;;2.40;;
20910;SDS011;10615;42.702;23.314;2023-11-19T00:25:59;3.67;;;2.20;;
20910;SDS011;10615;42.702;23.314;2023-11-19T00:27:00;2.53;;;2.03;;
20910;SDS011;10615;42.702;23.314;2023-11-19T00:28:00;3.75;;;2.47;;
20910;SDS011;10615;42.702;23.314;2023-11-19T00:29:01;2.75;;;2.40;;
20910;SDS011;10615;42.702;23.314;2023-11-19T00:30:02;2.30;;;2.00;;
20910;SDS011;10615;42.702;23.314;2023-11-19T00:31:05;3.90;;;2.47;;
20910;SDS011;10615;42.702;23.314;2023-11-19T00:32:06;2.60;;;2.40;;
20910;SDS011;10615;42.702;23.314;2023-11-19T00:33:07;4.03;;;2.22;;
20910;SDS011;10615;42.702;23.314;2023-11-19T00:34:08;2.50;;;2.30;;
20910;SDS011;10615;42.702;23.314;2023-11-19T00:35:09;2.67;;;2.42;;
20910;SDS011;10615;42.702;23.314;2023-11-19T00:36:14;2.95;;;2.50;;
20910;SDS011;10615;42.702;23.314;2023-11-19T00:37:15;2.90;;;2.60;;
20910;SDS011;10615;42.702;23.314;2023-11-19T00:38:16;3.45;;;2.65;;
20910;SDS011;10615;42.702;23.314;2023-11-19T00:39:16;3.92;;;2.45;;
20910;SDS011;10615;42.702;23.314;2023-11-19T00:40:17;2.85;;;2.50;;
20910;SDS011;10615;42.702;23.314;2023-11-19T00:41:21;3.20;;;2.67;;
20910;SDS011;10615;42.702;23.314;2023-11-19T00:42:22;2.95;;;2.53;;
20910;SDS011;10615;42.702;23.314;2023-11-19T00:43:24;2.53;;;2.33;;
20910;SDS011;10615;42.702;23.314;2023-11-19T00:44:26;2.63;;;2.35;;
20910;SDS011;10615;42.702;23.314;2023-11-19T00:45:26;2.90;;;2.50;;
20910;SDS011;10615;42.702;23.314;2023-11-19T00:46:28;3.20;;;2.72;;
20910;SDS011;10615;42.702;23.314;2023-11-19T00:47:29;3.22;;;2.70;;
20910;SDS011;10615;42.702;23.314;2023-11-19T00:48:31;2.70;;;2.50;;
20910;SDS011;10615;42.702;23.314;2023-11-19T00:49:31;4.05;;;2.65;;
20910;SDS011;10615;42.702;23.314;2023-11-19T00:50:35;2.80;;;2.55;;
20910;SDS011;10615;42.702;23.314;2023-11-19T00:51:36;2.63;;;2.30;;
20910;SDS011;10615;42.702;23.314;2023-11-19T00:52:37;2.75;;;2.30;;
20910;SDS011;10615;42.702;23.314;2023-11-19T00:53:38;4.57;;;2.55;;
20910;SDS011;10615;42.702;23.314;2023-11-19T00:54:39;2.47;;;2.28;;
20910;SDS011;10615;42.702;23.314;2023-11-19T00:55:40;3.45;;;2.78;;
20910;SDS011;10615;42.702;23.314;2023-11-19T00:56:40;2.70;;;2.42;;
20910;SDS011;10615;42.702;23.314;2023-11-19T00:57:41;2.75;;;2.40;;
20910;SDS011;10615;42.702;23.314;2023-11-19T00:58:42;3.10;;;2.78;;
20910;SDS011;10615;42.702;23.314;2023-11-19T00:59:43;3.05;;;2.42;;
20910;SDS011;10615;42.702;23.314;2023-11-19T01:00:44;3.22;;;2.65;;
20910;SDS011;10615;42.702;23.314;2023-11-19T01:01:45;2.70;;;2.25;;
20910;SDS011;10615;42.702;23.314;2023-11-19T01:02:47;2.85;;;2.25;;
20910;SDS011;10615;42.702;23.314;2023-11-19T01:03:50;2.95;;;2.55;;
20910;SDS011;10615;42.702;23.314;2023-11-19T01:04:50;2.72;;;2.38;;
20910;SDS011;10615;42.702;23.314;2023-11-19T01:05:52;3.35;;;2.20;;
20910;SDS011;10615;42.702;23.314;2023-11-19T01:06:53;3.03;;;2.50;;
20910;SDS011;10615;42.702;23.314;2023-11-19T01:07:54;4.00;;;2.35;;
20910;SDS011;10615;42.702;23.314;2023-11-19T01:08:55;2.83;;;2.30;;
20910;SDS011;10615;42.702;23.314;2023-11-19T01:09:59;2.55;;;2.35;;
20910;SDS011;10615;42.702;23.314;2023-11-19T01:10:59;3.03;;;2.47;;
20910;SDS011;10615;42.702;23.314;2023-11-19T01:12:01;4.60;;;2.45;;
20910;SDS011;10615;42.702;23.314;2023-11-19T01:13:02;2.88;;;2.45;;
20910;SDS011;10615;42.702;23.314;2023-11-19T01:14:05;2.75;;;2.22;;
20910;SDS011;10615;42.702;23.314;2023-11-19T01:15:06;2.78;;;2.30;;
20910;SDS011;10615;42.702;23.314;2023-11-19T01:16:07;2.67;;;2.30;;
20910;SDS011;10615;42.702;23.314;2023-11-19T01:17:09;3.47;;;2.00;;
20910;SDS011;10615;42.702;23.314;2023-11-19T01:18:10;2.60;;;2.38;;
20910;SDS011;10615;42.702;23.314;2023-11-19T01:19:11;3.53;;;2.45;;
20910;SDS011;10615;42.702;23.314;2023-11-19T01:20:11;4.82;;;2.30;;
20910;SDS011;10615;42.702;23.314;2023-11-19T01:21:13;2.28;;;1.90;;
20910;SDS011;10615;42.702;23.314;2023-11-19T01:22:17;2.47;;;2.08;;
20910;SDS011;10615;42.702;23.314;2023-11-19T01:23:19;2.90;;;2.20;;
20910;SDS011;10615;42.702;23.314;2023-11-19T01:24:19;3.40;;;2.10;;
20910;SDS011;10615;42.702;23.314;2023-11-19T01:25:20;2.30;;;2.10;;
20910;SDS011;10615;42.702;23.314;2023-11-19T01:26:21;2.22;;;2.00;;
20910;SDS011;10615;42.702;23.314;2023-11-19T01:27:21;2.58;;;2.25;;
20910;SDS011;10615;42.702;23.314;2023-11-19T01:28:22;3.45;;;2.20;;
20910;SDS011;10615;42.702;23.314;2023-11-19T01:29:23;2.70;;;2.35;;
20910;SDS011;10615;42.702;23.314;2023-11-19T01:30:24;3.75;;;2.20;;
20910;SDS011;10615;42.702;23.314;2023-11-19T01:31:24;2.30;;;2.10;;
20910;SDS011;10615;42.702;23.314;2023-11-19T01:32:25;2.50;;;2.05;;
20910;SDS011;10615;42.702;23.314;2023-11-19T01:33:26;2.50;;;2.30;;
20910;SDS011;10615;42.702;23.314;2023-11-19T01:34:27;2.70;;;2.40;;
20910;SDS011;10615;42.702;23.314;2023-11-19T01:35:28;2.20;;;2.00;;
20910;SDS011;10615;42.702;23.314;2023-11-19T01:36:29;2.67;;;2.10;;
20910;SDS011;10615;42.702;23.314;2023-11-19T01:37:30;2.40;;;2.20;;
20910;SDS011;10615;42.702;23.314;2023-11-19T01:38:32;2.88;;;2.28;;
20910;SDS011;10615;42.702;23.314;2023-11-19T01:39:32;2.30;;;2.10;;
20910;SDS011;10615;42.702;23.314;2023-11-19T01:40:33;3.67;;;2.22;;
20910;SDS011;10615;42.702;23.314;2023-11-19T01:41:34;2.63;;;2.20;;
20910;SDS011;10615;42.702;23.314;2023-11-19T01:42:36;2.20;;;2.00;;
20910;SDS011;10615;42.702;23.314;2023-11-19T01:43:41;3.50;;;2.28;;
20910;SDS011;10615;42.702;23.314;2023-11-19T01:44:41;4.07;;;2.10;;
20910;SDS011;10615;42.702;23.314;2023-11-19T01:45:42;3.05;;;2.25;;
20910;SDS011;10615;42.702;23.314;2023-11-19T01:46:44;2.55;;;2.13;;
20910;SDS011;10615;42.702;23.314;2023-11-19T01:47:47;2.47;;;2.10;;
20910;SDS011;10615;42.702;23.314;2023-11-19T01:48:48;2.47;;;2.20;;
20910;SDS011;10615;42.702;23.314;2023-11-19T01:49:49;2.10;;;1.90;;
20910;SDS011;10615;42.702;23.314;2023-11-19T01:50:51;3.20;;;2.30;;
20910;SDS011;10615;42.702;23.314;2023-11-19T01:51:52;2.10;;;1.85;;
20910;SDS011;10615;42.702;23.314;2023-11-19T01:52:53;2.95;;;1.90;;
20910;SDS011;10615;42.702;23.314;2023-11-19T01:53:57;3.30;;;2.25;;
20910;SDS011;10615;42.702;23.314;2023-11-19T01:54:59;2.63;;;2.13;;
20910;SDS011;10615;42.702;23.314;2023-11-19T01:56:00;2.95;;;2.22;;
20910;SDS011;10615;42.702;23.314;2023-11-19T01:57:01;2.78;;;2.38;;
20910;SDS011;10615;42.702;23.314;2023-11-19T01:58:02;2.28;;;2.00;;
20910;SDS011;10615;42.702;23.314;2023-11-19T01:59:03;2.67;;;2.10;;
20910;SDS011;10615;42.702;23.314;2023-11-19T02:00:05;3.30;;;2.10;;
20910;SDS011;10615;42.702;23.314;2023-11-19T02:01:07;3.55;;;2.30;;
20910;SDS011;10615;42.702;23.314;2023-11-19T02:02:07;2.47;;;2.15;;
20910;SDS011;10615;42.702;23.314;2023-11-19T02:03:08;3.00;;;2.17;;
20910;SDS011;10615;42.702;23.314;2023-11-19T02:04:10;3.97;;;2.08;;
20910;SDS011;10615;42.702;23.314;2023-11-19T02:05:12;2.65;;;2.00;;
20910;SDS011;10615;42.702;23.314;2023-11-19T02:06:14;2.58;;;2.25;;
20910;SDS011;10615;42.702;23.314;2023-11-19T02:07:15;4.25;;;2.50;;
20910;SDS011;10615;42.702;23.314;2023-11-19T02:08:17;3.00;;;2.03;;
20910;SDS011;10615;42.702;23.314;2023-11-19T02:09:18;2.60;;;2.40;;
20910;SDS011;10615;42.702;23.314;2023-11-19T02:10:19;2.33;;;2.03;;
20910;SDS011;10615;42.702;23.314;2023-11-19T02:11:20;2.75;;;2.28;;
20910;SDS011;10615;42.702;23.314;2023-11-19T02:12:20;4.32;;;2.20;;
20910;SDS011;10615;42.702;23.314;2023-11-19T02:13:21;4.00;;;2.35;;
20910;SDS011;10615;42.702;23.314;2023-11-19T02:14:23;3.20;;;2.08;;
20910;SDS011;10615;42.702;23.314;2023-11-19T02:15:25;2.42;;;2.15;;
20910;SDS011;10615;42.702;23.314;2023-11-19T02:16:26;3.42;;;2.35;;
20910;SDS011;10615;42.702;23.314;2023-11-19T02:17:28;2.92;;;2.20;;
20910;SDS011;10615;42.702;23.314;2023-11-19T02:18:34;4.43;;;2.63;;
20910;SDS011;10615;42.702;23.314;2023-11-19T02:19:35;3.05;;;2.47;;
20910;SDS011;10615;42.702;23.314;2023-11-19T02:20:36;2.40;;;2.20;;
20910;SDS011;10615;42.702;23.314;2023-11-19T02:21:37;2.63;;;2.10;;
20910;SDS011;10615;42.702;23.314;2023-11-19T02:22:38;4.95;;;2.20;;
20910;SDS011;10615;42.702;23.314;2023-11-19T02:23:38;2.78;;;2.30;;
20910;SDS011;10615;42.702;23.314;2023-11-19T02:24:39;2.85;;;2.17;;
20910;SDS011;10615;42.702;23.314;2023-11-19T02:25:40;2.92;;;2.30;;
20910;SDS011;10615;42.702;23.314;2023-11-19T02:28:10;2.95;;;2.38;;
20910;SDS011;10615;42.702;23.314;2023-11-19T02:29:12;2.40;;;2.20;;
20910;SDS011;10615;42.702;23.314;2023-11-19T02:30:13;2.20;;;2.00;;
20910;SDS011;10615;42.702;23.314;2023-11-19T02:31:14;2.92;;;2.33;;
20910;SDS011;10615;42.702;23.314;2023-11-19T02:32:15;3.58;;;2.38;;
20910;SDS011;10615;42.702;23.314;2023-11-19T02:33:16;2.50;;;2.05;;
20910;SDS011;10615;42.702;23.314;2023-11-19T02:34:17;3.05;;;2.08;;
20910;SDS011;10615;42.702;23.314;2023-11-19T02:35:18;3.22;;;2.42;;
20910;SDS011;10615;42.702;23.314;2023-11-19T02:36:18;2.95;;;2.30;;
20910;SDS011;10615;42.702;23.314;2023-11-19T02:37:19;2.67;;;2.10;;
20910;SDS011;10615;42.702;23.314;2023-11-19T02:38:20;2.75;;;2.03;;
20910;SDS011;10615;42.702;23.314;2023-11-19T02:39:21;2.42;;;2.20;;
20910;SDS011;10615;42.702;23.314;2023-11-19T02:40:22;2.70;;;2.50;;
20910;SDS011;10615;42.702;23.314;2023-11-19T02:41:26;3.03;;;2.35;;
20910;SDS011;10615;42.702;23.314;2023-11-19T02:42:26;3.35;;;2.50;;
20910;SDS011;10615;42.702;23.314;2023-11-19T02:43:28;2.67;;;2.10;;
20910;SDS011;10615;42.702;23.314;2023-11-19T02:44:28;2.75;;;2.22;;
20910;SDS011;10615;42.702;23.314;2023-11-19T02:45:30;2.47;;;2.00;;
20910;SDS011;10615;42.702;23.314;2023-11-19T02:46:31;3.60;;;2.50;;
20910;SDS011;10615;42.702;23.314;2023-11-19T02:47:32;3.08;;;2.45;;
20910;SDS011;10615;42.702;23.314;2023-11-19T02:48:33;2.90;;;2.45;;
20910;SDS011;10615;42.702;23.314;2023-11-19T02:49:37;2.50;;;2.30;;
20910;SDS011;10615;42.702;23.314;2023-11-19T02:50:38;2.30;;;2.10;;
20910;SDS011;10615;42.702;23.314;2023-11-19T02:51:39;3.08;;;2.22;;
20910;SDS011;10615;42.702;23.314;2023-11-19T02:52:43;2.25;;;2.05;;
20910;SDS011;10615;42.702;23.314;2023-11-19T02:53:45;2.72;;;2.25;;
20910;SDS011;10615;42.702;23.314;2023-11-19T02:54:48;2.95;;;2.50;;
20910;SDS011;10615;42.702;23.314;2023-11-19T02:55:49;2.03;;;1.90;;
20910;SDS011;10615;42.702;23.314;2023-11-19T02:56:50;2.40;;;2.20;;
20910;SDS011;10615;42.702;23.314;2023-11-19T02:57:55;3.10;;;2.42;;
20910;SDS011;10615;42.702;23.314;2023-11-19T02:58:59;2.50;;;2.30;;
20910;SDS011;10615;42.702;23.314;2023-11-19T03:00:00;2.42;;;2.20;;
20910;SDS011;10615;42.702;23.314;2023-11-19T03:01:00;3.22;;;2.28;;
20910;SDS011;10615;42.702;23.314;2023-11-19T03:02:12;2.55;;;2.25;;
20910;SDS011;10615;42.702;23.314;2023-11-19T03:03:15;2.60;;;2.30;;
20910;SDS011;10615;42.702;23.314;2023-11-19T03:04:25;2.53;;;2.23;;
20910;SDS011;10615;42.702;23.314;2023-11-19T03:05:27;2.42;;;2.10;;
20910;SDS011;10615;42.702;23.314;2023-11-19T03:06:30;2.40;;;2.20;;
20910;SDS011;10615;42.702;23.314;2023-11-19T03:07:31;2.50;;;2.17;;
20910;SDS011;10615;42.702;23.314;2023-11-19T03:08:34;2.83;;;2.30;;
20910;SDS011;10615;42.702;23.314;2023-11-19T03:09:36;2.50;;;2.30;;
20910;SDS011;10615;42.702;23.314;2023-11-19T03:10:36;2.65;;;2.30;;
20910;SDS011;10615;42.702;23.314;2023-11-19T03:11:37;2.60;;;2.20;;
20910;SDS011;10615;42.702;23.314;2023-11-19T03:12:38;2.67;;;2.13;;
20910;SDS011;10615;42.702;23.314;2023-11-19T03:13:42;3.53;;;2.42;;
20910;SDS011;10615;42.702;23.314;2023-11-19T03:14:43;2.80;;;2.33;;
20910;SDS011;10615;42.702;23.314;2023-11-19T03:15:45;4.75;;;2.60;;
20910;SDS011;10615;42.702;23.314;2023-11-19T03:16:46;4.25;;;3.05;;
20910;SDS011;10615;42.702;23.314;2023-11-19T03:17:46;4.43;;;3.20;;
20910;SDS011;10615;42.702;23.314;2023-11-19T03:18:47;3.05;;;2.63;;
20910;SDS011;10615;42.702;23.314;2023-11-19T03:19:47;2.70;;;2.45;;
20910;SDS011;10615;42.702;23.314;2023-11-19T03:20:48;3.95;;;2.90;;
20910;SDS011;10615;42.702;23.314;2023-11-19T03:21:49;4.63;;;3.40;;
20910;SDS011;10615;42.702;23.314;2023-11-19T03:22:50;3.25;;;2.75;;
20910;SDS011;10615;42.702;23.314;2023-11-19T03:23:52;2.80;;;2.30;;
20910;SDS011;10615;42.702;23.314;2023-11-19T03:24:53;4.15;;;2.85;;
20910;SDS011;10615;42.702;23.314;2023-11-19T03:25:54;3.03;;;2.53;;
20910;SDS011;10615;42.702;23.314;2023-11-19T03:26:55;2.90;;;2.45;;
20910;SDS011;10615;42.702;23.314;2023-11-19T03:27:55;3.67;;;2.97;;
20910;SDS011;10615;42.702;23.314;2023-11-19T03:28:58;5.25;;;3.80;;
20910;SDS011;10615;42.702;23.314;2023-11-19T03:29:59;3.97;;;3.22;;
20910;SDS011;10615;42.702;23.314;2023-11-19T03:30:59;4.18;;;3.50;;
20910;SDS011;10615;42.702;23.314;2023-11-19T03:32:00;3.45;;;2.70;;
20910;SDS011;10615;42.702;23.314;2023-11-19T03:33:01;3.20;;;2.70;;
20910;SDS011;10615;42.702;23.314;2023-11-19T03:34:02;2.80;;;2.50;;
20910;SDS011;10615;42.702;23.314;2023-11-19T03:35:03;3.78;;;2.80;;
20910;SDS011;10615;42.702;23.314;2023-11-19T03:36:07;3.25;;;2.33;;
20910;SDS011;10615;42.702;23.314;2023-11-19T03:37:09;3.65;;;2.65;;
20910;SDS011;10615;42.702;23.314;2023-11-19T03:38:09;2.80;;;2.38;;
20910;SDS011;10615;42.702;23.314;2023-11-19T03:39:10;2.72;;;2.20;;
20910;SDS011;10615;42.702;23.314;2023-11-19T03:40:11;2.58;;;2.20;;
20910;SDS011;10615;42.702;23.314;2023-11-19T03:41:14;4.10;;;2.95;;
20910;SDS011;10615;42.702;23.314;2023-11-19T03:42:18;4.65;;;3.22;;
20910;SDS011;10615;42.702;23.314;2023-11-19T03:43:20;3.67;;;3.05;;
20910;SDS011;10615;42.702;23.314;2023-11-19T03:44:21;3.67;;;2.72;;
20910;SDS011;10615;42.702;23.314;2023-11-19T03:45:22;3.35;;;2.78;;
20910;SDS011;10615;42.702;23.314;2023-11-19T03:46:22;3.67;;;3.05;;
20910;SDS011;10615;42.702;23.314;2023-11-19T03:47:23;4.35;;;3.78;;
20910;SDS011;10615;42.702;23.314;2023-11-19T03:48:24;3.60;;;3.20;;
20910;SDS011;10615;42.702;23.314;2023-11-19T03:49:24;3.03;;;2.65;;
20910;SDS011;10615;42.702;23.314;2023-11-19T03:50:25;2.80;;;2.50;;
20910;SDS011;10615;42.702;23.314;2023-11-19T03:51:26;2.47;;;2.20;;
20910;SDS011;10615;42.702;23.314;2023-11-19T03:52:26;3.25;;;2.53;;
20910;SDS011;10615;42.702;23.314;2023-11-19T03:53:27;3.60;;;2.40;;
20910;SDS011;10615;42.702;23.314;2023-11-19T03:54:28;4.50;;;2.22;;
20910;SDS011;10615;42.702;23.314;2023-11-19T03:55:28;3.10;;;2.58;;
20910;SDS011;10615;42.702;23.314;2023-11-19T03:56:29;3.72;;;2.33;;
20910;SDS011;10615;42.702;23.314;2023-11-19T03:57:48;2.50;;;2.30;;
20910;SDS011;10615;42.702;23.314;2023-11-19T03:58:49;3.10;;;2.58;;
20910;SDS011;10615;42.702;23.314;2023-11-19T03:59:50;3.63;;;2.80;;
20910;SDS011;10615;42.702;23.314;2023-11-19T04:00:50;3.13;;;2.45;;
20910;SDS011;10615;42.702;23.314;2023-11-19T04:01:52;3.78;;;3.33;;
20910;SDS011;10615;42.702;23.314;2023-11-19T04:02:54;5.95;;;4.75;;
20910;SDS011;10615;42.702;23.314;2023-11-19T04:03:55;7.93;;;4.38;;
20910;SDS011;10615;42.702;23.314;2023-11-19T04:04:56;8.48;;;6.20;;
20910;SDS011;10615;42.702;23.314;2023-11-19T04:05:56;4.82;;;3.80;;
20910;SDS011;10615;42.702;23.314;2023-11-19T04:06:57;2.90;;;2.60;;
20910;SDS011;10615;42.702;23.314;2023-11-19T04:08:00;3.42;;;3.13;;
20910;SDS011;10615;42.702;23.314;2023-11-19T04:09:01;2.90;;;2.58;;
20910;SDS011;10615;42.702;23.314;2023-11-19T04:10:02;5.30;;;2.67;;
20910;SDS011;10615;42.702;23.314;2023-11-19T04:11:03;2.63;;;2.17;;
20910;SDS011;10615;42.702;23.314;2023-11-19T04:12:04;2.65;;;2.38;;
20910;SDS011;10615;42.702;23.314;2023-11-19T04:13:05;3.03;;;2.28;;
20910;SDS011;10615;42.702;23.314;2023-11-19T04:14:06;3.00;;;2.25;;
20910;SDS011;10615;42.702;23.314;2023-11-19T04:15:07;3.08;;;2.38;;
20910;SDS011;10615;42.702;23.314;2023-11-19T04:16:08;3.78;;;2.60;;
20910;SDS011;10615;42.702;23.314;2023-11-19T04:17:09;2.83;;;2.47;;
20910;SDS011;10615;42.702;23.314;2023-11-19T04:18:10;3.35;;;2.70;;
20910;SDS011;10615;42.702;23.314;2023-11-19T04:19:11;3.53;;;2.60;;
20910;SDS011;10615;42.702;23.314;2023-11-19T04:20:12;3.05;;;2.72;;
20910;SDS011;10615;42.702;23.314;2023-11-19T04:21:13;3.15;;;2.60;;
20910;SDS011;10615;42.702;23.314;2023-11-19T04:22:14;2.40;;;2.20;;
20910;SDS011;10615;42.702;23.314;2023-11-19T04:23:15;3.38;;;2.60;;
20910;SDS011;10615;42.702;23.314;2023-11-19T04:24:16;4.05;;;2.90;;
20910;SDS011;10615;42.702;23.314;2023-11-19T04:25:16;3.60;;;2.80;;
20910;SDS011;10615;42.702;23.314;2023-11-19T04:26:19;3.83;;;3.25;;
20910;SDS011;10615;42.702;23.314;2023-11-19T04:27:20;4.20;;;3.17;;
20910;SDS011;10615;42.702;23.314;2023-11-19T04:28:20;4.18;;;3.38;;
20910;SDS011;10615;42.702;23.314;2023-11-19T04:29:21;4.65;;;3.50;;
20910;SDS011;10615;42.702;23.314;2023-11-19T04:30:22;3.60;;;2.80;;
20910;SDS011;10615;42.702;23.314;2023-11-19T04:31:22;5.00;;;3.33;;
20910;SDS011;10615;42.702;23.314;2023-11-19T04:32:23;3.25;;;2.75;;
20910;SDS011;10615;42.702;23.314;2023-11-19T04:33:25;5.00;;;3.47;;
20910;SDS011;10615;42.702;23.314;2023-11-19T04:34:26;4.20;;;3.10;;
20910;SDS011;10615;42.702;23.314;2023-11-19T04:35:26;3.65;;;3.00;;
20910;SDS011;10615;42.702;23.314;2023-11-19T04:36:27;5.95;;;2.70;;
20910;SDS011;10615;42.702;23.314;2023-11-19T04:37:29;4.32;;;3.15;;
20910;SDS011;10615;42.702;23.314;2023-11-19T04:38:30;2.92;;;2.40;;
20910;SDS011;10615;42.702;23.314;2023-11-19T04:39:30;3.97;;;2.72;;
20910;SDS011;10615;42.702;23.314;2023-11-19T04:40:31;3.90;;;2.92;;
20910;SDS011;10615;42.702;23.314;2023-11-19T04:41:33;3.17;;;2.63;;
20910;SDS011;10615;42.702;23.314;2023-11-19T04:42:34;3.28;;;2.60;;
20910;SDS011;10615;42.702;23.314;2023-11-19T04:43:35;3.63;;;2.70;;
20910;SDS011;10615;42.702;23.314;2023-11-19T04:44:36;3.13;;;2.70;;
20910;SDS011;10615;42.702;23.314;2023-11-19T04:45:36;3.70;;;2.58;;
20910;SDS011;10615;42.702;23.314;2023-11-19T04:46:37;4.07;;;2.80;;
20910;SDS011;10615;42.702;23.314;2023-11-19T04:47:38;3.88;;;2.42;;
20910;SDS011;10615;42.702;23.314;2023-11-19T04:48:39;3.05;;;2.50;;
20910;SDS011;10615;42.702;23.314;2023-11-19T04:49:40;3.45;;;2.65;;
20910;SDS011;10615;42.702;23.314;2023-11-19T04:50:43;3.60;;;2.80;;
20910;SDS011;10615;42.702;23.314;2023-11-19T04:51:44;3.20;;;2.40;;
20910;SDS011;10615;42.702;23.314;2023-11-19T04:52:48;3.38;;;1.90;;
20910;SDS011;10615;42.702;23.314;2023-11-19T04:53:49;3.55;;;2.42;;
20910;SDS011;10615;42.702;23.314;2023-11-19T04:54:49;2.60;;;2.40;;
20910;SDS011;10615;42.702;23.314;2023-11-19T04:55:50;2.70;;;2.40;;
20910;SDS011;10615;42.702;23.314;2023-11-19T04:56:51;2.78;;;2.35;;
20910;SDS011;10615;42.702;23.314;2023-11-19T04:57:53;3.63;;;2.72;;
20910;SDS011;10615;42.702;23.314;2023-11-19T04:58:54;3.45;;;2.47;;
20910;SDS011;10615;42.702;23.314;2023-11-19T04:59:55;3.20;;;2.70;;
20910;SDS011;10615;42.702;23.314;2023-11-19T05:00:55;4.30;;;2.95;;
20910;SDS011;10615;42.702;23.314;2023-11-19T05:01:56;2.85;;;2.42;;
20910;SDS011;10615;42.702;23.314;2023-11-19T05:02:58;2.60;;;2.40;;
20910;SDS011;10615;42.702;23.314;2023-11-19T05:03:58;3.17;;;2.47;;
20910;SDS011;10615;42.702;23.314;2023-11-19T05:05:00;2.75;;;2.45;;
20910;SDS011;10615;42.702;23.314;2023-11-19T05:06:01;3.08;;;2.50;;
20910;SDS011;10615;42.702;23.314;2023-11-19T05:07:02;2.95;;;2.63;;
20910;SDS011;10615;42.702;23.314;2023-11-19T05:08:03;2.92;;;2.60;;
20910;SDS011;10615;42.702;23.314;2023-11-19T05:09:03;2.95;;;2.65;;
20910;SDS011;10615;42.702;23.314;2023-11-19T05:10:05;2.83;;;2.53;;
20910;SDS011;10615;42.702;23.314;2023-11-19T05:11:06;3.22;;;2.70;;
20910;SDS011;10615;42.702;23.314;2023-11-19T05:12:06;5.15;;;2.75;;
20910;SDS011;10615;42.702;23.314;2023-11-19T05:13:11;3.67;;;2.92;;
20910;SDS011;10615;42.702;23.314;2023-11-19T05:14:12;3.45;;;2.70;;
20910;SDS011;10615;42.702;23.314;2023-11-19T05:15:13;3.97;;;3.22;;
20910;SDS011;10615;42.702;23.314;2023-11-19T05:16:14;2.92;;;2.22;;
20910;SDS011;10615;42.702;23.314;2023-11-19T05:17:15;2.70;;;2.50;;
20910;SDS011;10615;42.702;23.314;2023-11-19T05:18:19;3.90;;;2.90;;
20910;SDS011;10615;42.702;23.314;2023-11-19T05:19:20;2.95;;;2.30;;
20910;SDS011;10615;42.702;23.314;2023-11-19T05:20:20;2.90;;;2.60;;
20910;SDS011;10615;42.702;23.314;2023-11-19T05:21:21;2.92;;;2.25;;
20910;SDS011;10615;42.702;23.314;2023-11-19T05:22:22;2.80;;;2.47;;
20910;SDS011;10615;42.702;23.314;2023-11-19T05:23:23;3.38;;;2.83;;
20910;SDS011;10615;42.702;23.314;2023-11-19T05:24:23;3.13;;;2.60;;
20910;SDS011;10615;42.702;23.314;2023-11-19T05:25:24;3.03;;;2.60;;
20910;SDS011;10615;42.702;23.314;2023-11-19T05:26:25;3.08;;;2.78;;
20910;SDS011;10615;42.702;23.314;2023-11-19T05:27:25;5.13;;;2.70;;
20910;SDS011;10615;42.702;23.314;2023-11-19T05:28:27;2.70;;;2.42;;
20910;SDS011;10615;42.702;23.314;2023-11-19T05:29:28;4.00;;;2.78;;
20910;SDS011;10615;42.702;23.314;2023-11-19T05:30:29;3.00;;;2.63;;
20910;SDS011;10615;42.702;23.314;2023-11-19T05:31:30;3.42;;;2.95;;
20910;SDS011;10615;42.702;23.314;2023-11-19T05:32:30;4.00;;;2.88;;
20910;SDS011;10615;42.702;23.314;2023-11-19T05:33:31;3.15;;;2.75;;
20910;SDS011;10615;42.702;23.314;2023-11-19T05:34:32;4.00;;;2.90;;
20910;SDS011;10615;42.702;23.314;2023-11-19T05:35:34;3.35;;;2.83;;
20910;SDS011;10615;42.702;23.314;2023-11-19T05:36:34;4.30;;;2.90;;
20910;SDS011;10615;42.702;23.314;2023-11-19T05:37:35;4.03;;;2.88;;
20910;SDS011;10615;42.702;23.314;2023-11-19T05:38:36;3.45;;;2.72;;
20910;SDS011;10615;42.702;23.314;2023-11-19T05:39:37;3.30;;;2.90;;
20910;SDS011;10615;42.702;23.314;2023-11-19T05:40:37;2.97;;;2.45;;
20910;SDS011;10615;42.702;23.314;2023-11-19T05:41:39;2.88;;;2.58;;
20910;SDS011;10615;42.702;23.314;2023-11-19T05:42:40;4.65;;;2.75;;
20910;SDS011;10615;42.702;23.314;2023-11-19T05:43:41;3.60;;;2.97;;
20910;SDS011;10615;42.702;23.314;2023-11-19T05:44:42;3.92;;;2.67;;
20910;SDS011;10615;42.702;23.314;2023-11-19T05:45:43;4.30;;;2.95;;
20910;SDS011;10615;42.702;23.314;2023-11-19T05:46:43;5.32;;;2.92;;
20910;SDS011;10615;42.702;23.314;2023-11-19T05:47:44;4.97;;;3.13;;
20910;SDS011;10615;42.702;23.314;2023-11-19T05:48:45;5.50;;;3.70;;
20910;SDS011;10615;42.702;23.314;2023-11-19T05:49:46;4.93;;;3.38;;
20910;SDS011;10615;42.702;23.314;2023-11-19T05:50:47;6.07;;;3.00;;
20910;SDS011;10615;42.702;23.314;2023-11-19T05:51:49;3.72;;;3.00;;
20910;SDS011;10615;42.702;23.314;2023-11-19T05:52:51;3.72;;;2.80;;
20910;SDS011;10615;42.702;23.314;2023-11-19T05:53:53;2.78;;;2.35;;
20910;SDS011;10615;42.702;23.314;2023-11-19T05:54:55;3.42;;;2.40;;
20910;SDS011;10615;42.702;23.314;2023-11-19T05:55:56;2.58;;;2.30;;
20910;SDS011;10615;42.702;23.314;2023-11-19T05:56:57;4.13;;;2.78;;
20910;SDS011;10615;42.702;23.314;2023-11-19T05:57:58;2.75;;;2.47;;
20910;SDS011;10615;42.702;23.314;2023-11-19T05:58:59;3.25;;;2.60;;
20910;SDS011;10615;42.702;23.314;2023-11-19T06:00:01;3.05;;;2.50;;
20910;SDS011;10615;42.702;23.314;2023-11-19T06:01:03;4.72;;;3.17;;
20910;SDS011;10615;42.702;23.314;2023-11-19T06:02:07;5.72;;;2.97;;
20910;SDS011;10615;42.702;23.314;2023-11-19T06:03:08;4.40;;;3.47;;
20910;SDS011;10615;42.702;23.314;2023-11-19T06:04:09;5.65;;;3.90;;
20910;SDS011;10615;42.702;23.314;2023-11-19T06:05:10;4.35;;;3.05;;